Halifax, North Carolina
Current Conditions -  °F | °C
As of 12:55 PM on Saturday 20 Dec 2014 (Local Time) from KIXA Reporting Station
Light Rain Light Rain  
Wind Chill: 37°   Ceiling: 3700
Heat Index: 37°   Visibility: 10mi
Dew Point: 28°   Wind: 0mph
Humidity: 70%   Direction: NA
Pressure: 30.28"   Gusts: NA
Location:  36.33°N, 77.59°W
Report Text: KIXA 201755Z AUTO 00000KT 10SM -RA SCT022 BKN037 OVC085 03/M02 A3028 RMK AO2
Loading
Personal Weather Stations






























Interactive Weather Map New forecast layout! Learn more

10-Day Weather Forecast

Advertisements
Track Severe Weather on mobile